sensor_id;sensor_type;location;lat;lon;timestamp;temperature;humidity
52495;DHT22;38405;53.212;5.660;2023-12-28T00:00:05;9.50;99.90
52495;DHT22;38405;53.212;5.660;2023-12-28T00:02:31;9.50;99.90
52495;DHT22;38405;53.212;5.660;2023-12-28T00:04:57;9.50;99.90
52495;DHT22;38405;53.212;5.660;2023-12-28T00:07:22;9.50;99.90
52495;DHT22;38405;53.212;5.660;2023-12-28T00:09:48;9.40;99.90
52495;DHT22;38405;53.212;5.660;2023-12-28T00:12:14;9.50;99.90
52495;DHT22;38405;53.212;5.660;2023-12-28T00:14:39;9.40;99.90
52495;DHT22;38405;53.212;5.660;2023-12-28T00:17:05;9.40;99.90
52495;DHT22;38405;53.212;5.660;2023-12-28T00:19:30;9.40;99.90
52495;DHT22;38405;53.212;5.660;2023-12-28T00:21:56;9.40;99.90
52495;DHT22;38405;53.212;5.660;2023-12-28T00:24:21;9.40;99.90
52495;DHT22;38405;53.212;5.660;2023-12-28T00:26:47;9.50;99.90
52495;DHT22;38405;53.212;5.660;2023-12-28T00:29:13;9.40;99.90
52495;DHT22;38405;53.212;5.660;2023-12-28T00:31:38;9.40;99.90
52495;DHT22;38405;53.212;5.660;2023-12-28T00:34:04;9.50;99.90
52495;DHT22;38405;53.212;5.660;2023-12-28T00:36:30;9.40;99.90
52495;DHT22;38405;53.212;5.660;2023-12-28T00:38:56;9.50;99.90
52495;DHT22;38405;53.212;5.660;2023-12-28T00:41:22;9.50;99.90
52495;DHT22;38405;53.212;5.660;2023-12-28T00:43:48;9.50;99.90
52495;DHT22;38405;53.212;5.660;2023-12-28T00:46:13;9.70;99.90
52495;DHT22;38405;53.212;5.660;2023-12-28T00:48:39;9.50;99.90
52495;DHT22;38405;53.212;5.660;2023-12-28T00:51:04;9.50;99.90
52495;DHT22;38405;53.212;5.660;2023-12-28T00:53:30;9.40;99.90
52495;DHT22;38405;53.212;5.660;2023-12-28T00:55:56;9.40;99.90
52495;DHT22;38405;53.212;5.660;2023-12-28T00:58:22;9.40;99.90
52495;DHT22;38405;53.212;5.660;2023-12-28T01:00:47;9.30;99.90
52495;DHT22;38405;53.212;5.660;2023-12-28T01:03:13;9.30;99.90
52495;DHT22;38405;53.212;5.660;2023-12-28T01:05:39;9.30;99.90
52495;DHT22;38405;53.212;5.660;2023-12-28T01:08:05;9.30;99.90
52495;DHT22;38405;53.212;5.660;2023-12-28T01:10:30;9.30;99.90
52495;DHT22;38405;53.212;5.660;2023-12-28T01:12:56;9.30;99.90
52495;DHT22;38405;53.212;5.660;2023-12-28T01:15:22;9.30;99.90
52495;DHT22;38405;53.212;5.660;2023-12-28T01:17:47;9.30;99.90
52495;DHT22;38405;53.212;5.660;2023-12-28T01:20:13;9.20;99.90
52495;DHT22;38405;53.212;5.660;2023-12-28T01:22:39;9.20;99.90
52495;DHT22;38405;53.212;5.660;2023-12-28T01:25:04;9.20;99.90
52495;DHT22;38405;53.212;5.660;2023-12-28T01:27:30;9.20;99.90
52495;DHT22;38405;53.212;5.660;2023-12-28T01:29:56;9.20;99.90
52495;DHT22;38405;53.212;5.660;2023-12-28T01:32:21;9.20;99.90
52495;DHT22;38405;53.212;5.660;2023-12-28T01:34:47;9.30;99.90
52495;DHT22;38405;53.212;5.660;2023-12-28T01:37:13;9.20;99.90
52495;DHT22;38405;53.212;5.660;2023-12-28T01:39:39;9.30;99.90
52495;DHT22;38405;53.212;5.660;2023-12-28T01:42:05;9.20;99.90
52495;DHT22;38405;53.212;5.660;2023-12-28T01:44:31;9.20;99.90
52495;DHT22;38405;53.212;5.660;2023-12-28T01:46:56;9.20;99.90
52495;DHT22;38405;53.212;5.660;2023-12-28T01:49:23;9.20;99.90
52495;DHT22;38405;53.212;5.660;2023-12-28T01:51:49;9.20;99.90
52495;DHT22;38405;53.212;5.660;2023-12-28T01:54:16;9.20;99.90
52495;DHT22;38405;53.212;5.660;2023-12-28T01:56:43;9.20;99.90
52495;DHT22;38405;53.212;5.660;2023-12-28T01:59:09;9.20;99.90
52495;DHT22;38405;53.212;5.660;2023-12-28T02:01:35;9.20;99.90
52495;DHT22;38405;53.212;5.660;2023-12-28T02:04:01;9.20;99.90
52495;DHT22;38405;53.212;5.660;2023-12-28T02:06:27;9.30;99.90
52495;DHT22;38405;53.212;5.660;2023-12-28T02:08:52;9.20;99.90
52495;DHT22;38405;53.212;5.660;2023-12-28T02:11:19;9.30;99.90
52495;DHT22;38405;53.212;5.660;2023-12-28T02:13:45;9.30;99.90
52495;DHT22;38405;53.212;5.660;2023-12-28T02:16:32;9.30;99.90
52495;DHT22;38405;53.212;5.660;2023-12-28T02:19:02;9.30;99.90
52495;DHT22;38405;53.212;5.660;2023-12-28T02:21:31;9.40;99.90
52495;DHT22;38405;53.212;5.660;2023-12-28T02:23:57;9.40;99.90
52495;DHT22;38405;53.212;5.660;2023-12-28T02:26:22;9.40;99.90
52495;DHT22;38405;53.212;5.660;2023-12-28T02:28:48;9.40;99.90
52495;DHT22;38405;53.212;5.660;2023-12-28T02:31:37;9.50;99.90
52495;DHT22;38405;53.212;5.660;2023-12-28T02:34:25;9.60;99.90
52495;DHT22;38405;53.212;5.660;2023-12-28T02:36:54;9.60;99.90
52495;DHT22;38405;53.212;5.660;2023-12-28T02:39:22;9.70;99.90
52495;DHT22;38405;53.212;5.660;2023-12-28T02:41:49;9.80;99.90
52495;DHT22;38405;53.212;5.660;2023-12-28T02:44:14;9.80;99.90
52495;DHT22;38405;53.212;5.660;2023-12-28T02:46:40;9.90;99.90
52495;DHT22;38405;53.212;5.660;2023-12-28T02:49:06;9.90;99.90
52495;DHT22;38405;53.212;5.660;2023-12-28T02:51:32;9.90;99.90
52495;DHT22;38405;53.212;5.660;2023-12-28T02:53:57;9.90;99.90
52495;DHT22;38405;53.212;5.660;2023-12-28T02:56:23;9.90;99.90
52495;DHT22;38405;53.212;5.660;2023-12-28T02:58:49;9.90;99.90
52495;DHT22;38405;53.212;5.660;2023-12-28T03:01:14;9.90;99.90
52495;DHT22;38405;53.212;5.660;2023-12-28T03:03:40;9.90;99.90
52495;DHT22;38405;53.212;5.660;2023-12-28T03:06:06;9.90;99.90
52495;DHT22;38405;53.212;5.660;2023-12-28T03:08:31;9.90;99.90
52495;DHT22;38405;53.212;5.660;2023-12-28T03:10:57;9.90;99.90
52495;DHT22;38405;53.212;5.660;2023-12-28T03:13:22;9.90;99.90
52495;DHT22;38405;53.212;5.660;2023-12-28T03:15:48;9.90;99.90
52495;DHT22;38405;53.212;5.660;2023-12-28T03:18:14;9.90;99.90
52495;DHT22;38405;53.212;5.660;2023-12-28T03:20:40;9.90;99.90
52495;DHT22;38405;53.212;5.660;2023-12-28T03:23:06;9.80;99.90
52495;DHT22;38405;53.212;5.660;2023-12-28T03:25:31;9.90;99.90
52495;DHT22;38405;53.212;5.660;2023-12-28T03:27:57;10.00;99.90
52495;DHT22;38405;53.212;5.660;2023-12-28T03:30:23;9.90;99.90
52495;DHT22;38405;53.212;5.660;2023-12-28T03:32:48;10.00;99.90
52495;DHT22;38405;53.212;5.660;2023-12-28T03:35:14;10.00;99.90
52495;DHT22;38405;53.212;5.660;2023-12-28T03:37:39;10.00;99.90
52495;DHT22;38405;53.212;5.660;2023-12-28T03:40:05;10.10;99.90
52495;DHT22;38405;53.212;5.660;2023-12-28T03:42:31;10.20;99.90
52495;DHT22;38405;53.212;5.660;2023-12-28T03:44:57;10.20;99.90
52495;DHT22;38405;53.212;5.660;2023-12-28T03:47:22;10.10;99.90
52495;DHT22;38405;53.212;5.660;2023-12-28T03:49:49;10.10;99.90
52495;DHT22;38405;53.212;5.660;2023-12-28T03:52:15;10.20;99.90
52495;DHT22;38405;53.212;5.660;2023-12-28T03:54:40;10.30;99.90
52495;DHT22;38405;53.212;5.660;2023-12-28T03:57:06;10.20;99.90
52495;DHT22;38405;53.212;5.660;2023-12-28T03:59:32;10.20;99.90
52495;DHT22;38405;53.212;5.660;2023-12-28T04:01:57;10.20;99.90
52495;DHT22;38405;53.212;5.660;2023-12-28T04:04:23;10.20;99.90
52495;DHT22;38405;53.212;5.660;2023-12-28T04:06:48;10.20;99.90
52495;DHT22;38405;53.212;5.660;2023-12-28T04:09:14;10.30;99.90
52495;DHT22;38405;53.212;5.660;2023-12-28T04:11:40;10.30;99.90
52495;DHT22;38405;53.212;5.660;2023-12-28T04:14:06;10.40;99.90
52495;DHT22;38405;53.212;5.660;2023-12-28T04:16:31;10.40;99.90
52495;DHT22;38405;53.212;5.660;2023-12-28T04:18:57;10.40;99.90
52495;DHT22;38405;53.212;5.660;2023-12-28T04:21:23;10.40;99.90
52495;DHT22;38405;53.212;5.660;2023-12-28T04:23:48;10.40;99.90
52495;DHT22;38405;53.212;5.660;2023-12-28T04:26:14;10.40;99.90
52495;DHT22;38405;53.212;5.660;2023-12-28T04:28:40;10.30;99.90
52495;DHT22;38405;53.212;5.660;2023-12-28T04:31:06;10.40;99.90
52495;DHT22;38405;53.212;5.660;2023-12-28T04:33:32;10.40;99.90
52495;DHT22;38405;53.212;5.660;2023-12-28T04:36:01;10.50;99.90
52495;DHT22;38405;53.212;5.660;2023-12-28T04:38:28;10.50;99.90
52495;DHT22;38405;53.212;5.660;2023-12-28T04:40:54;10.60;99.90
52495;DHT22;38405;53.212;5.660;2023-12-28T04:43:21;10.60;99.90
52495;DHT22;38405;53.212;5.660;2023-12-28T04:45:49;10.60;99.90
52495;DHT22;38405;53.212;5.660;2023-12-28T04:48:15;10.60;99.90
52495;DHT22;38405;53.212;5.660;2023-12-28T04:50:40;10.70;99.90
52495;DHT22;38405;53.212;5.660;2023-12-28T04:53:06;10.60;99.90
52495;DHT22;38405;53.212;5.660;2023-12-28T04:55:32;10.40;99.90
52495;DHT22;38405;53.212;5.660;2023-12-28T04:57:57;10.40;99.90
52495;DHT22;38405;53.212;5.660;2023-12-28T05:00:23;10.30;99.90
52495;DHT22;38405;53.212;5.660;2023-12-28T05:02:48;10.30;99.90
52495;DHT22;38405;53.212;5.660;2023-12-28T05:05:14;10.20;99.90
52495;DHT22;38405;53.212;5.660;2023-12-28T05:07:40;10.20;99.90
52495;DHT22;38405;53.212;5.660;2023-12-28T05:10:06;10.20;99.90
52495;DHT22;38405;53.212;5.660;2023-12-28T05:12:32;10.20;99.90
52495;DHT22;38405;53.212;5.660;2023-12-28T05:14:57;10.20;99.90
52495;DHT22;38405;53.212;5.660;2023-12-28T05:17:23;10.30;99.90
52495;DHT22;38405;53.212;5.660;2023-12-28T05:19:48;10.20;99.90
52495;DHT22;38405;53.212;5.660;2023-12-28T05:22:14;10.20;99.90
52495;DHT22;38405;53.212;5.660;2023-12-28T05:24:39;10.20;99.90
52495;DHT22;38405;53.212;5.660;2023-12-28T05:27:05;10.20;99.90
52495;DHT22;38405;53.212;5.660;2023-12-28T05:29:31;10.10;99.90
52495;DHT22;38405;53.212;5.660;2023-12-28T05:31:56;10.10;99.90
52495;DHT22;38405;53.212;5.660;2023-12-28T05:34:22;10.20;99.90
52495;DHT22;38405;53.212;5.660;2023-12-28T05:36:48;10.00;99.90
52495;DHT22;38405;53.212;5.660;2023-12-28T05:39:13;10.00;99.90
52495;DHT22;38405;53.212;5.660;2023-12-28T05:41:39;10.10;99.90
52495;DHT22;38405;53.212;5.660;2023-12-28T05:44:06;10.00;99.90
52495;DHT22;38405;53.212;5.660;2023-12-28T05:46:31;10.00;99.90
52495;DHT22;38405;53.212;5.660;2023-12-28T05:48:58;10.10;99.90
52495;DHT22;38405;53.212;5.660;2023-12-28T05:51:23;10.10;99.90
52495;DHT22;38405;53.212;5.660;2023-12-28T05:53:49;10.10;99.90
52495;DHT22;38405;53.212;5.660;2023-12-28T05:56:14;10.10;99.90
52495;DHT22;38405;53.212;5.660;2023-12-28T05:58:40;10.20;99.90
52495;DHT22;38405;53.212;5.660;2023-12-28T06:01:06;10.20;99.90
52495;DHT22;38405;53.212;5.660;2023-12-28T06:03:32;10.10;99.90
52495;DHT22;38405;53.212;5.660;2023-12-28T06:05:58;10.20;99.90
52495;DHT22;38405;53.212;5.660;2023-12-28T06:08:23;10.30;99.90
52495;DHT22;38405;53.212;5.660;2023-12-28T06:10:49;10.20;99.90
52495;DHT22;38405;53.212;5.660;2023-12-28T06:13:15;10.30;99.90
52495;DHT22;38405;53.212;5.660;2023-12-28T06:15:41;10.20;99.90
52495;DHT22;38405;53.212;5.660;2023-12-28T06:18:06;10.20;99.90
52495;DHT22;38405;53.212;5.660;2023-12-28T06:20:32;10.10;99.90
52495;DHT22;38405;53.212;5.660;2023-12-28T06:22:58;10.10;99.90
52495;DHT22;38405;53.212;5.660;2023-12-28T06:25:23;10.10;99.90
52495;DHT22;38405;53.212;5.660;2023-12-28T06:27:49;10.10;99.90
52495;DHT22;38405;53.212;5.660;2023-12-28T06:30:15;10.10;99.90
52495;DHT22;38405;53.212;5.660;2023-12-28T06:32:40;10.10;99.90
52495;DHT22;38405;53.212;5.660;2023-12-28T06:35:06;10.10;99.90
52495;DHT22;38405;53.212;5.660;2023-12-28T06:37:32;10.00;99.90
52495;DHT22;38405;53.212;5.660;2023-12-28T06:39:58;10.20;99.90
52495;DHT22;38405;53.212;5.660;2023-12-28T06:42:23;10.20;99.90
52495;DHT22;38405;53.212;5.660;2023-12-28T06:44:49;10.10;99.90
52495;DHT22;38405;53.212;5.660;2023-12-28T06:47:15;10.10;99.90
52495;DHT22;38405;53.212;5.660;2023-12-28T06:49:40;10.00;99.90
52495;DHT22;38405;53.212;5.660;2023-12-28T06:52:06;10.10;99.90
52495;DHT22;38405;53.212;5.660;2023-12-28T06:54:32;10.30;99.90
52495;DHT22;38405;53.212;5.660;2023-12-28T06:56:57;10.10;99.90
52495;DHT22;38405;53.212;5.660;2023-12-28T06:59:23;10.10;99.90
52495;DHT22;38405;53.212;5.660;2023-12-28T07:01:49;10.20;99.90
52495;DHT22;38405;53.212;5.660;2023-12-28T07:04:15;10.30;99.90
52495;DHT22;38405;53.212;5.660;2023-12-28T07:06:41;10.20;99.90
52495;DHT22;38405;53.212;5.660;2023-12-28T07:09:06;10.50;99.90
52495;DHT22;38405;53.212;5.660;2023-12-28T07:11:32;10.20;99.90
52495;DHT22;38405;53.212;5.660;2023-12-28T07:13:58;10.20;99.90
52495;DHT22;38405;53.212;5.660;2023-12-28T07:16:23;10.20;99.90
52495;DHT22;38405;53.212;5.660;2023-12-28T07:18:49;10.20;99.90
52495;DHT22;38405;53.212;5.660;2023-12-28T07:21:15;10.20;99.90
52495;DHT22;38405;53.212;5.660;2023-12-28T07:23:40;10.20;99.90
52495;DHT22;38405;53.212;5.660;2023-12-28T07:26:06;10.20;99.90
52495;DHT22;38405;53.212;5.660;2023-12-28T07:28:31;10.30;99.90
52495;DHT22;38405;53.212;5.660;2023-12-28T07:30:57;10.30;99.90
52495;DHT22;38405;53.212;5.660;2023-12-28T07:33:23;10.40;99.90
52495;DHT22;38405;53.212;5.660;2023-12-28T07:35:48;10.40;99.90
52495;DHT22;38405;53.212;5.660;2023-12-28T07:38:14;10.40;99.90
52495;DHT22;38405;53.212;5.660;2023-12-28T07:40:40;10.50;99.90
52495;DHT22;38405;53.212;5.660;2023-12-28T07:43:06;10.40;99.90
52495;DHT22;38405;53.212;5.660;2023-12-28T07:45:32;10.40;99.90
52495;DHT22;38405;53.212;5.660;2023-12-28T07:48:01;10.50;99.90
52495;DHT22;38405;53.212;5.660;2023-12-28T07:50:27;10.40;99.90
52495;DHT22;38405;53.212;5.660;2023-12-28T07:52:53;10.40;99.90
52495;DHT22;38405;53.212;5.660;2023-12-28T07:55:18;10.60;99.90
52495;DHT22;38405;53.212;5.660;2023-12-28T07:57:45;10.40;99.90
52495;DHT22;38405;53.212;5.660;2023-12-28T08:00:11;10.40;99.90
52495;DHT22;38405;53.212;5.660;2023-12-28T08:02:37;10.30;99.90
52495;DHT22;38405;53.212;5.660;2023-12-28T08:05:03;10.30;99.90
52495;DHT22;38405;53.212;5.660;2023-12-28T08:07:29;10.30;99.90
52495;DHT22;38405;53.212;5.660;2023-12-28T08:09:54;10.30;99.90
52495;DHT22;38405;53.212;5.660;2023-12-28T08:12:20;10.30;99.90
52495;DHT22;38405;53.212;5.660;2023-12-28T08:14:50;10.30;99.90
52495;DHT22;38405;53.212;5.660;2023-12-28T08:17:15;10.30;99.90
52495;DHT22;38405;53.212;5.660;2023-12-28T08:19:41;10.40;99.90
52495;DHT22;38405;53.212;5.660;2023-12-28T08:22:07;10.40;99.90
52495;DHT22;38405;53.212;5.660;2023-12-28T08:24:32;10.30;99.90
52495;DHT22;38405;53.212;5.660;2023-12-28T08:26:59;10.40;99.90
52495;DHT22;38405;53.212;5.660;2023-12-28T08:29:26;10.40;99.90
52495;DHT22;38405;53.212;5.660;2023-12-28T08:31:51;10.90;99.90
52495;DHT22;38405;53.212;5.660;2023-12-28T08:34:17;10.40;99.90
52495;DHT22;38405;53.212;5.660;2023-12-28T08:36:43;10.30;99.90
52495;DHT22;38405;53.212;5.660;2023-12-28T08:39:08;10.30;99.90
52495;DHT22;38405;53.212;5.660;2023-12-28T08:41:34;10.40;99.90
52495;DHT22;38405;53.212;5.660;2023-12-28T08:43:59;10.50;99.90
52495;DHT22;38405;53.212;5.660;2023-12-28T08:46:25;10.40;99.90
52495;DHT22;38405;53.212;5.660;2023-12-28T08:48:51;10.50;99.90
52495;DHT22;38405;53.212;5.660;2023-12-28T08:51:17;10.40;99.90
52495;DHT22;38405;53.212;5.660;2023-12-28T08:53:42;10.60;99.90
52495;DHT22;38405;53.212;5.660;2023-12-28T08:56:20;10.40;99.90
52495;DHT22;38405;53.212;5.660;2023-12-28T08:58:47;10.50;99.90
52495;DHT22;38405;53.212;5.660;2023-12-28T09:01:23;10.50;99.90
52495;DHT22;38405;53.212;5.660;2023-12-28T09:03:53;10.50;99.90
52495;DHT22;38405;53.212;5.660;2023-12-28T09:06:19;10.60;99.90
52495;DHT22;38405;53.212;5.660;2023-12-28T09:08:51;10.60;99.90
52495;DHT22;38405;53.212;5.660;2023-12-28T09:11:17;10.60;99.90
52495;DHT22;38405;53.212;5.660;2023-12-28T09:13:43;10.70;99.90
52495;DHT22;38405;53.212;5.660;2023-12-28T09:16:13;10.70;99.90
52495;DHT22;38405;53.212;5.660;2023-12-28T09:18:40;10.70;99.90
52495;DHT22;38405;53.212;5.660;2023-12-28T09:21:07;10.70;99.90
52495;DHT22;38405;53.212;5.660;2023-12-28T09:23:34;10.70;99.90
52495;DHT22;38405;53.212;5.660;2023-12-28T09:26:01;10.80;99.90
52495;DHT22;38405;53.212;5.660;2023-12-28T09:28:29;10.80;99.90
52495;DHT22;38405;53.212;5.660;2023-12-28T09:30:54;10.80;99.90
52495;DHT22;38405;53.212;5.660;2023-12-28T09:33:20;10.80;99.90
52495;DHT22;38405;53.212;5.660;2023-12-28T09:35:46;10.90;99.90
52495;DHT22;38405;53.212;5.660;2023-12-28T09:38:13;10.70;99.90
52495;DHT22;38405;53.212;5.660;2023-12-28T09:40:41;10.70;99.90
52495;DHT22;38405;53.212;5.660;2023-12-28T09:43:23;10.70;99.90
52495;DHT22;38405;53.212;5.660;2023-12-28T09:45:53;10.70;99.90
52495;DHT22;38405;53.212;5.660;2023-12-28T09:48:20;10.70;99.90
52495;DHT22;38405;53.212;5.660;2023-12-28T09:50:51;10.90;99.90
52495;DHT22;38405;53.212;5.660;2023-12-28T09:53:20;10.80;99.90
52495;DHT22;38405;53.212;5.660;2023-12-28T09:55:48;10.80;99.90
52495;DHT22;38405;53.212;5.660;2023-12-28T09:58:16;10.80;99.90
52495;DHT22;38405;53.212;5.660;2023-12-28T10:00:47;10.80;99.90
52495;DHT22;38405;53.212;5.660;2023-12-28T10:03:13;10.90;99.90
52495;DHT22;38405;53.212;5.660;2023-12-28T10:05:43;10.90;99.90
52495;DHT22;38405;53.212;5.660;2023-12-28T10:08:11;10.80;99.90
52495;DHT22;38405;53.212;5.660;2023-12-28T10:10:39;10.80;99.90
52495;DHT22;38405;53.212;5.660;2023-12-28T10:13:06;10.80;99.90
52495;DHT22;38405;53.212;5.660;2023-12-28T10:15:33;10.90;99.90
52495;DHT22;38405;53.212;5.660;2023-12-28T10:17:58;10.90;99.90
52495;DHT22;38405;53.212;5.660;2023-12-28T10:20:28;10.90;99.90
52495;DHT22;38405;53.212;5.660;2023-12-28T10:22:54;11.10;99.90
52495;DHT22;38405;53.212;5.660;2023-12-28T10:25:19;11.20;99.90
52495;DHT22;38405;53.212;5.660;2023-12-28T10:27:45;11.00;99.90
52495;DHT22;38405;53.212;5.660;2023-12-28T10:30:11;10.90;99.90
52495;DHT22;38405;53.212;5.660;2023-12-28T10:32:40;10.80;99.90
52495;DHT22;38405;53.212;5.660;2023-12-28T10:35:05;10.90;99.90
52495;DHT22;38405;53.212;5.660;2023-12-28T10:37:32;10.90;99.90
52495;DHT22;38405;53.212;5.660;2023-12-28T10:39:59;11.30;99.90
52495;DHT22;38405;53.212;5.660;2023-12-28T10:42:31;11.10;99.90
52495;DHT22;38405;53.212;5.660;2023-12-28T10:45:04;11.00;99.90
52495;DHT22;38405;53.212;5.660;2023-12-28T10:47:37;11.10;99.90
52495;DHT22;38405;53.212;5.660;2023-12-28T10:50:05;11.00;99.90
52495;DHT22;38405;53.212;5.660;2023-12-28T10:52:32;11.00;99.90
52495;DHT22;38405;53.212;5.660;2023-12-28T11:01:04;11.10;99.90
52495;DHT22;38405;53.212;5.660;2023-12-28T11:03:37;11.10;99.90
52495;DHT22;38405;53.212;5.660;2023-12-28T11:06:04;11.10;99.90
52495;DHT22;38405;53.212;5.660;2023-12-28T11:08:32;11.20;99.90
52495;DHT22;38405;53.212;5.660;2023-12-28T11:10:59;11.10;99.90
52495;DHT22;38405;53.212;5.660;2023-12-28T11:13:29;11.10;99.90
52495;DHT22;38405;53.212;5.660;2023-12-28T11:15:56;11.20;99.90
52495;DHT22;38405;53.212;5.660;2023-12-28T11:18:23;11.10;99.90
52495;DHT22;38405;53.212;5.660;2023-12-28T11:20:50;11.10;99.90
52495;DHT22;38405;53.212;5.660;2023-12-28T11:23:16;11.10;99.90
52495;DHT22;38405;53.212;5.660;2023-12-28T11:25:42;11.00;99.90
52495;DHT22;38405;53.212;5.660;2023-12-28T11:28:11;11.00;99.90
52495;DHT22;38405;53.212;5.660;2023-12-28T11:30:38;11.00;99.90
52495;DHT22;38405;53.212;5.660;2023-12-28T11:33:07;11.00;99.90
52495;DHT22;38405;53.212;5.660;2023-12-28T11:35:40;11.00;99.90
52495;DHT22;38405;53.212;5.660;2023-12-28T11:38:09;11.00;99.90
52495;DHT22;38405;53.212;5.660;2023-12-28T11:40:40;11.10;99.90
52495;DHT22;38405;53.212;5.660;2023-12-28T11:43:20;10.90;99.90
52495;DHT22;38405;53.212;5.660;2023-12-28T11:45:50;11.00;99.90
52495;DHT22;38405;53.212;5.660;2023-12-28T11:48:27;11.20;99.90
52495;DHT22;38405;53.212;5.660;2023-12-28T11:50:58;11.00;99.90
52495;DHT22;38405;53.212;5.660;2023-12-28T11:53:24;11.00;99.90
52495;DHT22;38405;53.212;5.660;2023-12-28T11:55:51;11.00;99.90
52495;DHT22;38405;53.212;5.660;2023-12-28T11:58:20;11.00;99.90
52495;DHT22;38405;53.212;5.660;2023-12-28T12:00:47;11.00;99.90
52495;DHT22;38405;53.212;5.660;2023-12-28T12:03:13;11.00;99.90
52495;DHT22;38405;53.212;5.660;2023-12-28T12:05:39;10.90;99.90
52495;DHT22;38405;53.212;5.660;2023-12-28T12:08:06;11.10;99.90
52495;DHT22;38405;53.212;5.660;2023-12-28T12:10:34;10.90;99.90
52495;DHT22;38405;53.212;5.660;2023-12-28T12:13:00;10.90;99.90
52495;DHT22;38405;53.212;5.660;2023-12-28T12:15:25;11.00;99.90
52495;DHT22;38405;53.212;5.660;2023-12-28T12:17:51;11.20;99.90
52495;DHT22;38405;53.212;5.660;2023-12-28T12:20:17;11.00;99.90
52495;DHT22;38405;53.212;5.660;2023-12-28T12:22:43;10.90;99.90
52495;DHT22;38405;53.212;5.660;2023-12-28T12:25:09;10.90;99.90
52495;DHT22;38405;53.212;5.660;2023-12-28T12:27:36;10.90;99.90
52495;DHT22;38405;53.212;5.660;2023-12-28T12:30:02;10.90;99.90
52495;DHT22;38405;53.212;5.660;2023-12-28T12:32:28;10.90;99.90
52495;DHT22;38405;53.212;5.660;2023-12-28T12:34:55;11.00;99.90
52495;DHT22;38405;53.212;5.660;2023-12-28T12:37:21;10.80;99.90
52495;DHT22;38405;53.212;5.660;2023-12-28T12:39:46;10.80;99.90
52495;DHT22;38405;53.212;5.660;2023-12-28T12:42:15;10.80;99.90
52495;DHT22;38405;53.212;5.660;2023-12-28T12:44:42;11.10;99.90
52495;DHT22;38405;53.212;5.660;2023-12-28T12:47:08;10.90;99.90
52495;DHT22;38405;53.212;5.660;2023-12-28T12:49:33;10.80;99.90
52495;DHT22;38405;53.212;5.660;2023-12-28T12:52:00;10.90;99.90
52495;DHT22;38405;53.212;5.660;2023-12-28T12:54:26;11.00;99.90
52495;DHT22;38405;53.212;5.660;2023-12-28T12:56:52;10.90;99.90
52495;DHT22;38405;53.212;5.660;2023-12-28T12:59:18;10.80;99.90
52495;DHT22;38405;53.212;5.660;2023-12-28T13:01:44;10.90;99.90
52495;DHT22;38405;53.212;5.660;2023-12-28T13:04:10;10.90;99.90
52495;DHT22;38405;53.212;5.660;2023-12-28T13:06:37;11.00;99.90
52495;DHT22;38405;53.212;5.660;2023-12-28T13:09:03;11.10;99.90
52495;DHT22;38405;53.212;5.660;2023-12-28T13:11:33;10.80;99.90
52495;DHT22;38405;53.212;5.660;2023-12-28T13:13:58;10.70;99.90
52495;DHT22;38405;53.212;5.660;2023-12-28T13:16:24;10.80;99.90
52495;DHT22;38405;53.212;5.660;2023-12-28T13:18:49;10.90;99.90
52495;DHT22;38405;53.212;5.660;2023-12-28T13:21:15;10.80;99.90
52495;DHT22;38405;53.212;5.660;2023-12-28T13:23:41;10.80;99.90
52495;DHT22;38405;53.212;5.660;2023-12-28T13:26:06;10.80;99.90
52495;DHT22;38405;53.212;5.660;2023-12-28T13:28:32;10.80;99.90
52495;DHT22;38405;53.212;5.660;2023-12-28T13:30:58;10.80;99.90
52495;DHT22;38405;53.212;5.660;2023-12-28T13:33:24;10.80;99.90
52495;DHT22;38405;53.212;5.660;2023-12-28T13:35:50;10.80;99.90
52495;DHT22;38405;53.212;5.660;2023-12-28T13:38:16;11.00;99.90
52495;DHT22;38405;53.212;5.660;2023-12-28T13:40:42;10.70;99.90
52495;DHT22;38405;53.212;5.660;2023-12-28T13:43:07;11.00;99.90
52495;DHT22;38405;53.212;5.660;2023-12-28T13:45:33;10.70;99.90
52495;DHT22;38405;53.212;5.660;2023-12-28T13:47:59;10.60;99.90
52495;DHT22;38405;53.212;5.660;2023-12-28T13:50:24;10.60;99.90
52495;DHT22;38405;53.212;5.660;2023-12-28T13:52:50;10.60;99.90
52495;DHT22;38405;53.212;5.660;2023-12-28T13:55:16;10.60;99.90
52495;DHT22;38405;53.212;5.660;2023-12-28T13:57:41;10.50;99.90
52495;DHT22;38405;53.212;5.660;2023-12-28T14:00:07;10.70;99.90
52495;DHT22;38405;53.212;5.660;2023-12-28T14:02:34;10.50;99.90
52495;DHT22;38405;53.212;5.660;2023-12-28T14:05:00;10.50;99.90
52495;DHT22;38405;53.212;5.660;2023-12-28T14:07:25;10.40;99.90
52495;DHT22;38405;53.212;5.660;2023-12-28T14:09:52;10.40;99.90
52495;DHT22;38405;53.212;5.660;2023-12-28T14:12:17;10.20;99.90
52495;DHT22;38405;53.212;5.660;2023-12-28T14:14:43;10.20;99.90
52495;DHT22;38405;53.212;5.660;2023-12-28T14:17:09;10.10;99.90
52495;DHT22;38405;53.212;5.660;2023-12-28T14:19:34;10.10;99.90
52495;DHT22;38405;53.212;5.660;2023-12-28T14:22:00;10.00;99.90
52495;DHT22;38405;53.212;5.660;2023-12-28T14:24:26;10.00;99.90
52495;DHT22;38405;53.212;5.660;2023-12-28T14:26:56;10.00;99.90
52495;DHT22;38405;53.212;5.660;2023-12-28T14:29:22;10.00;99.90
52495;DHT22;38405;53.212;5.660;2023-12-28T14:31:48;10.00;99.90
52495;DHT22;38405;53.212;5.660;2023-12-28T14:34:16;10.00;99.90
52495;DHT22;38405;53.212;5.660;2023-12-28T14:36:46;10.00;99.90
52495;DHT22;38405;53.212;5.660;2023-12-28T14:39:16;10.00;99.90
52495;DHT22;38405;53.212;5.660;2023-12-28T14:41:45;9.90;99.90
52495;DHT22;38405;53.212;5.660;2023-12-28T14:44:11;9.90;99.90
52495;DHT22;38405;53.212;5.660;2023-12-28T14:46:43;9.90;99.90
52495;DHT22;38405;53.212;5.660;2023-12-28T14:49:09;9.80;99.90
52495;DHT22;38405;53.212;5.660;2023-12-28T14:51:37;9.80;99.90
52495;DHT22;38405;53.212;5.660;2023-12-28T14:54:04;9.90;99.90
52495;DHT22;38405;53.212;5.660;2023-12-28T14:56:30;9.90;99.90
52495;DHT22;38405;53.212;5.660;2023-12-28T14:58:58;9.90;99.90
52495;DHT22;38405;53.212;5.660;2023-12-28T15:01:24;9.90;99.90
52495;DHT22;38405;53.212;5.660;2023-12-28T15:03:49;9.90;99.90
52495;DHT22;38405;53.212;5.660;2023-12-28T15:06:15;9.90;99.90
52495;DHT22;38405;53.212;5.660;2023-12-28T15:08:44;9.90;99.90
52495;DHT22;38405;53.212;5.660;2023-12-28T15:11:10;9.90;99.90
52495;DHT22;38405;53.212;5.660;2023-12-28T15:13:37;9.90;99.90
52495;DHT22;38405;53.212;5.660;2023-12-28T15:16:03;9.90;99.90
52495;DHT22;38405;53.212;5.660;2023-12-28T15:18:30;9.90;99.90
52495;DHT22;38405;53.212;5.660;2023-12-28T15:20:56;9.90;99.90
52495;DHT22;38405;53.212;5.660;2023-12-28T15:23:22;9.90;99.90
52495;DHT22;38405;53.212;5.660;2023-12-28T15:25:48;9.90;99.90
52495;DHT22;38405;53.212;5.660;2023-12-28T15:28:13;9.80;99.90
52495;DHT22;38405;53.212;5.660;2023-12-28T15:30:39;9.80;99.90
52495;DHT22;38405;53.212;5.660;2023-12-28T15:33:05;9.80;99.90
52495;DHT22;38405;53.212;5.660;2023-12-28T15:35:31;9.80;99.90